Logan Cache Airport Logan US
ICAO: KLGU
IATA: LGU
Category: Medium
Scheduled Services: No

Elevation: 4457 ft
TransAlt. 18000 ft.

Airport Communications:
ASOS:135.275
CEDAR CITY RDO:122.2
CTAF/UNICOM:122.8

KLGU Zoom In..

If you have problems with the map follow the link
https://www.worldairports.se/pages/airport.php?
ICAO=KLGU

Runways:

(A) RW 10 length 5005 ft width 75 ft
---- / hdg 108

(B) RW 17 length 9010 ft width 100 ft
ILS 109.15 / hdg 169

(C) RW 28 length 5005 ft width 75 ft
---- / hdg 288

(D) RW 35 length 9010 ft width 100 ft
---- / hdg 349

Location; KLGU
Day. 19 / Time. 17.03 Zulu
* Altimeter: 30.57
* Temperature: -12° c. -10.4°f.
* Wind from: 000° Speed 00 kn.
Dewpoint: -13° c.
Visibility: 6 Statute Miles.
Clouds: Few 100 ft.
Conditions: Mist.

KLGU 191703Z AUTO 00000KT 6SM BR FEW001 M12/M13 A3057 RMK AO2 T11221133 $


Wind - Calm.

 
 
jpsmedia worldairports.se 2020   terms of use